createdAt,value
2018-12-17T00:01:16.122Z,98.80
2018-12-17T00:03:45.224Z,98.50
2018-12-17T00:06:14.329Z,98.50
2018-12-17T00:08:43.569Z,98.70
2018-12-17T00:11:12.876Z,98.50
2018-12-17T00:13:41.986Z,98.50
2018-12-17T00:16:11.107Z,98.80
2018-12-17T00:18:40.163Z,98.60
2018-12-17T00:21:09.272Z,98.60
2018-12-17T00:23:38.409Z,98.50
2018-12-17T00:26:07.515Z,98.60
2018-12-17T00:28:36.628Z,98.60
2018-12-17T00:31:05.727Z,98.50
2018-12-17T00:33:34.855Z,98.60
2018-12-17T00:36:04.081Z,98.60
2018-12-17T00:38:33.158Z,98.60
2018-12-17T00:41:02.274Z,98.70
2018-12-17T00:43:31.524Z,98.70
2018-12-17T00:46:01.297Z,98.60
2018-12-17T00:48:30.432Z,98.70
2018-12-17T00:50:59.510Z,98.70
2018-12-17T00:53:28.638Z,98.70
2018-12-17T00:55:57.783Z,98.70
2018-12-17T00:58:26.886Z,98.60
2018-12-17T01:00:56.273Z,98.50
2018-12-17T01:03:25.540Z,98.50
2018-12-17T01:05:54.603Z,98.50
2018-12-17T01:08:23.779Z,98.60
2018-12-17T01:10:52.869Z,98.60
2018-12-17T01:13:21.936Z,98.60
2018-12-17T01:15:51.084Z,98.70
2018-12-17T01:18:20.309Z,98.50
2018-12-17T01:20:49.384Z,98.50
2018-12-17T01:23:18.559Z,98.50
2018-12-17T01:25:47.644Z,98.60
2018-12-17T01:28:22.146Z,98.60
2018-12-17T01:30:47.939Z,98.60
2018-12-17T01:33:17.006Z,98.70
2018-12-17T01:35:46.122Z,98.90
2018-12-17T01:38:15.257Z,98.70
2018-12-17T01:40:44.425Z,98.80
2018-12-17T01:43:13.546Z,98.80
2018-12-17T01:45:43.188Z,98.80
2018-12-17T01:48:12.361Z,98.80
2018-12-17T01:50:41.495Z,98.70
2018-12-17T01:53:11.073Z,98.70
2018-12-17T01:55:40.114Z,98.70
2018-12-17T01:58:09.216Z,98.70
2018-12-17T02:00:38.325Z,98.90
2018-12-17T02:03:07.429Z,98.80
2018-12-17T02:05:36.490Z,98.80
2018-12-17T02:08:05.662Z,98.80
2018-12-17T02:10:34.783Z,99.10
2018-12-17T02:13:03.965Z,99.40
2018-12-17T02:15:33.052Z,99.10
2018-12-17T02:18:02.199Z,99.10
2018-12-17T02:20:31.311Z,99.00
2018-12-17T02:23:00.418Z,98.90
2018-12-17T02:25:29.564Z,98.90
2018-12-17T02:27:58.748Z,98.70
2018-12-17T02:30:27.947Z,98.50
2018-12-17T02:32:57.062Z,98.60
2018-12-17T02:35:26.134Z,98.50
2018-12-17T02:37:55.289Z,98.60
2018-12-17T02:40:24.385Z,98.40
2018-12-17T02:42:53.500Z,98.40
2018-12-17T02:45:22.888Z,98.40
2018-12-17T02:47:51.933Z,98.30
2018-12-17T02:50:21.004Z,98.50
2018-12-17T02:52:50.143Z,98.60
2018-12-17T02:55:19.191Z,98.50
2018-12-17T02:57:48.272Z,98.70
2018-12-17T03:00:17.893Z,98.90
2018-12-17T03:02:47.005Z,98.80
2018-12-17T03:05:16.093Z,98.90
2018-12-17T03:07:45.248Z,98.80
2018-12-17T03:10:14.342Z,98.90
2018-12-17T03:12:43.451Z,98.90
2018-12-17T03:15:13.078Z,98.80
2018-12-17T03:17:42.200Z,98.90
2018-12-17T03:20:11.428Z,98.90
2018-12-17T03:22:40.547Z,98.90
2018-12-17T03:25:09.614Z,99.00
2018-12-17T03:27:38.778Z,99.00
2018-12-17T03:30:08.600Z,98.80
2018-12-17T03:32:37.764Z,98.80
2018-12-17T03:35:06.926Z,98.80
2018-12-17T03:37:36.108Z,99.10
2018-12-17T03:40:05.502Z,98.80
2018-12-17T03:42:34.582Z,99.00
2018-12-17T03:45:03.899Z,98.80
2018-12-17T03:47:32.987Z,98.90
2018-12-17T03:50:02.144Z,99.00
2018-12-17T03:52:31.685Z,99.00
2018-12-17T03:55:00.839Z,98.80
2018-12-17T03:57:29.932Z,99.00
2018-12-17T03:59:59.065Z,99.00
2018-12-17T04:02:28.185Z,98.90
2018-12-17T04:04:57.485Z,98.90
2018-12-17T04:07:27.150Z,98.80
2018-12-17T04:09:56.364Z,98.60
2018-12-17T04:12:25.494Z,98.60
2018-12-17T04:14:54.609Z,98.60
2018-12-17T04:17:23.669Z,98.70
2018-12-17T04:19:52.782Z,98.80
2018-12-17T04:22:22.366Z,98.80
2018-12-17T04:24:51.461Z,98.80
2018-12-17T04:27:20.549Z,98.80
2018-12-17T04:29:49.994Z,98.80
2018-12-17T04:32:19.115Z,98.70
2018-12-17T04:34:48.271Z,98.70
2018-12-17T04:37:17.792Z,98.70
2018-12-17T04:39:46.890Z,98.80
2018-12-17T04:42:16.000Z,98.90
2018-12-17T04:44:45.138Z,99.00
2018-12-17T04:47:14.202Z,99.20
2018-12-17T04:49:43.272Z,99.20
2018-12-17T04:52:12.764Z,99.20
2018-12-17T04:54:42.124Z,99.30
2018-12-17T04:57:11.259Z,99.30
2018-12-17T04:59:40.659Z,99.40
2018-12-17T05:02:09.763Z,99.40
2018-12-17T05:04:38.868Z,99.20
2018-12-17T05:07:08.575Z,99.20
2018-12-17T05:09:37.651Z,98.90
2018-12-17T05:12:06.701Z,98.80
2018-12-17T05:14:35.873Z,98.90
2018-12-17T05:17:04.988Z,98.80
2018-12-17T05:19:34.062Z,98.80
2018-12-17T05:22:03.277Z,99.10
2018-12-17T05:24:32.398Z,99.00
2018-12-17T05:27:01.609Z,98.90
2018-12-17T05:29:31.041Z,99.00
2018-12-17T05:32:00.188Z,99.10
2018-12-17T05:34:29.256Z,99.20
2018-12-17T05:36:58.972Z,99.00
2018-12-17T05:39:28.031Z,98.80
2018-12-17T05:41:57.095Z,98.70
2018-12-17T05:44:26.552Z,98.90
2018-12-17T05:46:55.664Z,99.10
2018-12-17T05:49:24.751Z,99.30
2018-12-17T05:51:53.864Z,99.30
2018-12-17T05:54:22.929Z,99.40
2018-12-17T05:56:52.129Z,99.60
2018-12-17T05:59:28.369Z,99.60
2018-12-17T06:01:52.902Z,99.40
2018-12-17T06:04:22.515Z,99.30
2018-12-17T06:06:51.656Z,99.40
2018-12-17T06:09:21.120Z,99.60
2018-12-17T06:11:50.435Z,99.50
2018-12-17T06:14:19.542Z,99.50
2018-12-17T06:16:48.630Z,99.30
2018-12-17T06:19:17.780Z,99.30
2018-12-17T06:21:46.869Z,99.20
2018-12-17T06:24:15.953Z,99.20
2018-12-17T06:26:45.076Z,99.20
2018-12-17T06:29:14.134Z,99.00
2018-12-17T06:31:43.210Z,99.10
2018-12-17T06:34:12.585Z,99.00
2018-12-17T06:36:41.748Z,99.00
2018-12-17T06:39:10.806Z,99.00
2018-12-17T06:41:39.983Z,99.10
2018-12-17T06:44:09.171Z,99.20
2018-12-17T06:46:38.278Z,99.20
2018-12-17T06:49:07.774Z,98.90
2018-12-17T06:51:37.451Z,99.00
2018-12-17T06:54:06.559Z,98.90
2018-12-17T06:56:35.707Z,98.90
2018-12-17T06:59:04.780Z,98.90
2018-12-17T07:01:34.014Z,98.90
2018-12-17T07:04:03.226Z,98.90
2018-12-17T07:06:32.379Z,99.00
2018-12-17T07:09:01.631Z,98.90
2018-12-17T07:11:31.151Z,98.90
2018-12-17T07:14:00.264Z,98.90
2018-12-17T07:16:29.377Z,99.10
2018-12-17T07:18:58.516Z,99.10
2018-12-17T07:21:27.614Z,99.20
2018-12-17T07:23:58.952Z,99.50
2018-12-17T07:26:28.769Z,99.40
2018-12-17T07:28:58.177Z,99.50
2018-12-17T07:31:27.292Z,99.40
2018-12-17T07:33:56.424Z,99.10
2018-12-17T07:36:25.478Z,98.90
2018-12-17T07:38:54.538Z,99.00
2018-12-17T07:41:23.664Z,99.00
2018-12-17T07:43:52.759Z,99.00
2018-12-17T07:46:21.854Z,99.00
2018-12-17T07:48:51.051Z,99.10
2018-12-17T07:51:20.123Z,99.00
2018-12-17T07:53:49.206Z,99.10
2018-12-17T07:56:18.400Z,99.40
2018-12-17T07:58:47.497Z,99.20
2018-12-17T08:01:16.559Z,99.80
2018-12-17T08:03:45.679Z,99.80
2018-12-17T08:06:14.786Z,99.70
2018-12-17T08:08:43.887Z,99.40
2018-12-17T08:11:13.006Z,99.20
2018-12-17T08:13:42.728Z,99.20
2018-12-17T08:16:12.116Z,99.20
2018-12-17T08:18:41.678Z,99.20
2018-12-17T08:21:10.758Z,98.70
2018-12-17T08:23:39.837Z,98.40
2018-12-17T08:26:08.951Z,97.80
2018-12-17T08:28:38.067Z,98.00
2018-12-17T08:31:07.190Z,98.70
2018-12-17T08:33:36.383Z,98.40
2018-12-17T08:36:05.478Z,98.20
2018-12-17T08:38:34.491Z,98.20
2018-12-17T08:41:03.831Z,98.30
2018-12-17T08:43:32.912Z,98.00
2018-12-17T08:46:02.069Z,98.10
2018-12-17T08:48:31.188Z,97.80
2018-12-17T08:51:00.216Z,97.70
2018-12-17T08:53:29.323Z,97.80
2018-12-17T08:55:58.406Z,97.80
2018-12-17T08:58:27.540Z,98.10
2018-12-17T09:00:56.636Z,97.50
2018-12-17T09:03:25.771Z,97.10
2018-12-17T09:05:54.858Z,97.00
2018-12-17T09:08:24.143Z,97.40
2018-12-17T09:10:53.272Z,97.40
2018-12-17T09:13:22.328Z,97.30
2018-12-17T09:15:51.421Z,97.90
2018-12-17T09:18:20.913Z,97.50
2018-12-17T09:20:50.092Z,97.90
2018-12-17T09:23:19.209Z,97.90
2018-12-17T09:25:48.342Z,97.40
2018-12-17T09:28:17.426Z,96.80
2018-12-17T09:30:46.535Z,97.30
2018-12-17T09:33:15.634Z,98.10
2018-12-17T09:35:44.681Z,97.90
2018-12-17T09:38:13.796Z,97.60
2018-12-17T09:40:42.904Z,97.80
2018-12-17T09:43:12.141Z,98.00
2018-12-17T09:45:41.226Z,97.90
2018-12-17T09:48:10.367Z,97.90
2018-12-17T09:50:39.446Z,97.70
2018-12-17T09:53:08.479Z,97.60
2018-12-17T09:55:37.562Z,97.50
2018-12-17T09:58:06.657Z,97.10
2018-12-17T10:00:35.776Z,97.00
2018-12-17T10:03:04.904Z,97.00
2018-12-17T10:05:33.999Z,97.10
2018-12-17T10:08:03.207Z,96.90
2018-12-17T10:10:32.295Z,96.50
2018-12-17T10:13:01.499Z,96.40
2018-12-17T10:15:30.602Z,96.80
2018-12-17T10:17:59.735Z,96.80
2018-12-17T10:20:28.784Z,96.70
2018-12-17T10:22:57.864Z,96.70
2018-12-17T10:25:27.101Z,96.70
2018-12-17T10:27:56.195Z,96.90
2018-12-17T10:30:32.321Z,96.90
2018-12-17T10:32:56.451Z,97.00
2018-12-17T10:35:25.522Z,97.00
2018-12-17T10:38:01.404Z,96.70
2018-12-17T10:40:30.531Z,97.10
2018-12-17T10:42:59.620Z,97.00
2018-12-17T10:45:28.777Z,97.00
2018-12-17T10:47:57.849Z,96.90
2018-12-17T10:50:26.974Z,96.60
2018-12-17T10:52:56.066Z,96.40
2018-12-17T10:55:25.122Z,96.40
2018-12-17T10:57:54.209Z,96.30
2018-12-17T11:00:28.690Z,96.10
2018-12-17T11:03:01.619Z,96.40
2018-12-17T11:05:31.082Z,96.40
2018-12-17T11:08:00.185Z,96.30
2018-12-17T11:10:29.404Z,96.50
2018-12-17T11:12:58.548Z,96.40
2018-12-17T11:15:27.677Z,95.80
2018-12-17T11:17:56.749Z,96.00
2018-12-17T11:20:25.903Z,96.60
2018-12-17T11:22:54.953Z,96.50
2018-12-17T11:25:24.096Z,96.50
2018-12-17T11:27:53.186Z,96.70
2018-12-17T11:30:22.311Z,96.70
2018-12-17T11:32:51.450Z,96.30
2018-12-17T11:35:20.592Z,96.10
2018-12-17T11:37:49.618Z,95.30
2018-12-17T11:40:18.776Z,95.40
2018-12-17T11:42:48.387Z,96.00
2018-12-17T11:45:17.539Z,95.40
2018-12-17T11:47:46.578Z,94.90
2018-12-17T11:50:15.961Z,94.70
2018-12-17T11:52:45.020Z,94.80
2018-12-17T11:55:14.129Z,95.10
2018-12-17T11:57:55.923Z,95.20
2018-12-17T12:00:27.033Z,95.60
2018-12-17T12:02:59.039Z,96.00
2018-12-17T12:05:27.275Z,95.40
2018-12-17T12:07:56.436Z,95.60
2018-12-17T12:10:25.552Z,95.60
2018-12-17T12:12:54.630Z,95.40
2018-12-17T12:15:23.800Z,95.60
2018-12-17T12:17:52.893Z,96.30
2018-12-17T12:20:22.027Z,96.30
2018-12-17T12:22:51.201Z,96.20
2018-12-17T12:25:20.283Z,96.00
2018-12-17T12:27:49.372Z,95.90
2018-12-17T12:30:18.539Z,96.10
2018-12-17T12:32:47.671Z,95.90
2018-12-17T12:35:16.833Z,95.60
2018-12-17T12:37:46.467Z,95.10
2018-12-17T12:40:15.588Z,95.20
2018-12-17T12:42:51.343Z,95.20
2018-12-17T12:45:15.903Z,95.10
2018-12-17T12:47:44.981Z,95.20
2018-12-17T12:50:14.118Z,95.80
2018-12-17T12:52:43.296Z,96.20
2018-12-17T12:55:12.410Z,96.20
2018-12-17T12:57:41.498Z,96.50
2018-12-17T13:00:13.992Z,96.40
2018-12-17T13:02:43.134Z,96.00
2018-12-17T13:05:12.377Z,95.90
2018-12-17T13:07:42.096Z,96.30
2018-12-17T13:10:13.257Z,96.80
2018-12-17T13:12:42.641Z,96.70
2018-12-17T13:15:11.803Z,96.90
2018-12-17T13:17:40.872Z,96.80
2018-12-17T13:20:10.677Z,96.80
2018-12-17T13:22:39.748Z,96.80
2018-12-17T13:25:13.312Z,96.70
2018-12-17T13:27:42.360Z,96.90
2018-12-17T13:30:11.517Z,96.90
2018-12-17T13:32:40.636Z,96.80
2018-12-17T13:35:10.075Z,96.70
2018-12-17T13:37:39.151Z,96.60
2018-12-17T13:40:10.423Z,96.80
2018-12-17T13:42:39.509Z,97.10
2018-12-17T13:45:09.229Z,96.80
2018-12-17T13:47:38.387Z,96.90
2018-12-17T13:50:12.648Z,97.00
2018-12-17T13:52:47.089Z,97.30
2018-12-17T13:55:16.300Z,97.30
2018-12-17T13:57:45.418Z,97.30
2018-12-17T14:00:14.698Z,97.10
2018-12-17T14:02:43.725Z,97.40
2018-12-17T14:05:12.799Z,97.10
2018-12-17T14:07:41.951Z,97.30
2018-12-17T14:10:16.731Z,97.10
2018-12-17T14:12:45.880Z,97.30
2018-12-17T14:15:14.950Z,97.40
2018-12-17T14:17:48.281Z,97.40
2018-12-17T14:20:22.404Z,97.50
2018-12-17T14:22:51.756Z,97.60
2018-12-17T14:25:20.793Z,97.30
2018-12-17T14:27:49.875Z,97.70
2018-12-17T14:30:18.973Z,97.50
2018-12-17T14:32:48.041Z,97.40
2018-12-17T14:35:17.121Z,97.90
2018-12-17T14:37:51.471Z,97.80
2018-12-17T14:40:20.560Z,97.80
2018-12-17T14:42:49.674Z,97.60
2018-12-17T14:45:18.847Z,97.70
2018-12-17T14:47:47.974Z,97.70
2018-12-17T14:50:17.118Z,97.80
2018-12-17T14:52:46.264Z,97.70
2018-12-17T14:55:15.379Z,97.60
2018-12-17T14:57:44.445Z,97.60
2018-12-17T15:00:13.643Z,97.60
2018-12-17T15:02:42.760Z,97.60
2018-12-17T15:05:11.870Z,97.60
2018-12-17T15:07:41.445Z,97.60
2018-12-17T15:10:10.540Z,97.60
2018-12-17T15:12:39.638Z,97.60
2018-12-17T15:15:10.205Z,97.60
2018-12-17T15:17:39.401Z,97.60
2018-12-17T15:20:09.315Z,97.60
2018-12-17T15:22:38.500Z,97.60
2018-12-17T15:25:08.707Z,97.60
2018-12-17T15:27:37.871Z,97.60
2018-12-17T15:30:07.324Z,97.40
2018-12-17T15:32:36.458Z,97.20
2018-12-17T15:35:05.814Z,97.20
2018-12-17T15:37:34.946Z,97.20
2018-12-17T15:40:04.184Z,97.00
2018-12-17T15:42:40.491Z,97.20
2018-12-17T15:45:04.623Z,97.20
2018-12-17T15:47:33.726Z,97.40
2018-12-17T15:50:02.907Z,97.40
2018-12-17T15:52:32.256Z,97.60
2018-12-17T15:55:02.498Z,97.70
2018-12-17T15:57:38.631Z,97.80
2018-12-17T16:00:10.132Z,98.10
2018-12-17T16:02:39.247Z,97.70
2018-12-17T16:05:08.476Z,97.50
2018-12-17T16:07:37.576Z,97.60
2018-12-17T16:10:07.337Z,97.60
2018-12-17T16:12:36.438Z,97.60
2018-12-17T16:15:06.217Z,97.40
2018-12-17T16:17:35.317Z,97.40
2018-12-17T16:20:04.896Z,97.40
2018-12-17T16:22:33.993Z,97.20
2018-12-17T16:25:03.911Z,97.20
2018-12-17T16:27:32.991Z,97.30
2018-12-17T16:30:02.157Z,97.10
2018-12-17T16:32:31.789Z,97.20
2018-12-17T16:35:00.899Z,97.30
2018-12-17T16:37:30.001Z,97.20
2018-12-17T16:39:59.081Z,97.20
2018-12-17T16:42:28.164Z,97.30
2018-12-17T16:44:57.267Z,97.20
2018-12-17T16:47:26.389Z,97.20
2018-12-17T16:49:55.451Z,97.20
2018-12-17T16:52:25.513Z,97.20
2018-12-17T16:54:54.632Z,97.30
2018-12-17T16:57:23.706Z,97.20
2018-12-17T16:59:52.804Z,97.30
2018-12-17T17:02:21.949Z,97.30
2018-12-17T17:04:51.025Z,97.30
2018-12-17T17:07:20.095Z,97.50
2018-12-17T17:09:49.231Z,97.50
2018-12-17T17:12:18.328Z,97.50
2018-12-17T17:14:48.318Z,97.60
2018-12-17T17:17:17.857Z,97.70
2018-12-17T17:19:50.780Z,97.80
2018-12-17T17:22:18.157Z,97.80
2018-12-17T17:24:47.282Z,98.10
2018-12-17T17:27:16.342Z,98.30
2018-12-17T17:29:45.447Z,98.30
2018-12-17T17:32:14.479Z,98.50
2018-12-17T17:34:43.581Z,98.60
2018-12-17T17:37:12.732Z,98.60
2018-12-17T17:39:41.851Z,98.50
2018-12-17T17:42:10.965Z,98.50
2018-12-17T17:44:40.116Z,98.50
2018-12-17T17:47:09.242Z,98.50
2018-12-17T17:49:38.318Z,98.60
2018-12-17T17:52:07.919Z,98.60
2018-12-17T17:54:36.966Z,98.70
2018-12-17T17:57:06.087Z,98.90
2018-12-17T17:59:35.227Z,98.90
2018-12-17T18:02:04.476Z,98.60
2018-12-17T18:04:33.555Z,98.50
2018-12-17T18:07:02.777Z,98.30
2018-12-17T18:09:31.925Z,98.30
2018-12-17T18:12:01.105Z,98.10
2018-12-17T18:14:30.262Z,98.10
2018-12-17T18:16:59.361Z,98.30
2018-12-17T18:19:28.450Z,98.10
2018-12-17T18:21:57.586Z,98.50
2018-12-17T18:24:26.668Z,98.40
2018-12-17T18:26:55.736Z,98.40
2018-12-17T18:29:24.873Z,98.50
2018-12-17T18:31:53.997Z,98.40
2018-12-17T18:34:23.269Z,98.30
2018-12-17T18:36:52.427Z,98.20
2018-12-17T18:39:21.677Z,98.30
2018-12-17T18:41:50.782Z,98.20
2018-12-17T18:44:20.185Z,98.50
2018-12-17T18:46:49.266Z,98.70
2018-12-17T18:49:18.531Z,98.40
2018-12-17T18:51:47.705Z,98.70
2018-12-17T18:54:17.090Z,98.90
2018-12-17T18:56:46.183Z,98.90
2018-12-17T18:59:15.287Z,98.80
2018-12-17T19:01:44.352Z,98.80
2018-12-17T19:04:13.477Z,98.90
2018-12-17T19:06:42.598Z,99.10
2018-12-17T19:09:11.679Z,99.00
2018-12-17T19:11:40.808Z,99.10
2018-12-17T19:14:09.943Z,99.00
2018-12-17T19:16:39.027Z,99.40
2018-12-17T19:19:08.092Z,99.30
2018-12-17T19:21:37.342Z,99.20
2018-12-17T19:24:06.426Z,98.60
2018-12-17T19:26:35.536Z,98.50
2018-12-17T19:29:04.681Z,98.70
2018-12-17T19:31:34.748Z,98.80
2018-12-17T19:34:04.230Z,98.90
2018-12-17T19:36:33.335Z,99.10
2018-12-17T19:39:02.606Z,99.00
2018-12-17T19:41:31.709Z,99.20
2018-12-17T19:44:00.755Z,99.10
2018-12-17T19:46:29.877Z,98.90
2018-12-17T19:48:59.005Z,98.70
2018-12-17T19:51:28.093Z,98.70
2018-12-17T19:53:57.214Z,98.60
2018-12-17T19:56:26.802Z,98.80
2018-12-17T19:58:55.894Z,98.90
2018-12-17T20:01:25.043Z,98.80
2018-12-17T20:03:54.399Z,98.80
2018-12-17T20:06:23.496Z,99.10
2018-12-17T20:08:53.196Z,99.10
2018-12-17T20:11:22.798Z,99.10
2018-12-17T20:13:51.889Z,99.00
2018-12-17T20:16:21.039Z,99.10
2018-12-17T20:18:50.187Z,99.10
2018-12-17T20:21:19.297Z,99.20
2018-12-17T20:23:48.425Z,99.10
2018-12-17T20:26:17.552Z,99.10
2018-12-17T20:28:46.634Z,99.10
2018-12-17T20:31:15.761Z,98.90
2018-12-17T20:33:44.878Z,99.00
2018-12-17T20:36:14.011Z,99.20
2018-12-17T20:38:43.120Z,99.40
2018-12-17T20:41:12.717Z,99.40
2018-12-17T20:43:41.858Z,99.30
2018-12-17T20:46:10.950Z,99.60
2018-12-17T20:48:40.074Z,99.70
2018-12-17T20:51:09.154Z,99.40
2018-12-17T20:53:38.260Z,99.30
2018-12-17T20:56:07.378Z,99.40
2018-12-17T20:58:36.452Z,99.30
2018-12-17T21:01:05.549Z,99.40
2018-12-17T21:03:34.970Z,99.40
2018-12-17T21:06:04.113Z,99.30
2018-12-17T21:08:33.211Z,99.50
2018-12-17T21:11:02.647Z,99.40
2018-12-17T21:13:31.767Z,99.30
2018-12-17T21:16:00.820Z,99.20
2018-12-17T21:18:30.385Z,99.20
2018-12-17T21:20:59.445Z,99.20
2018-12-17T21:23:28.833Z,99.00
2018-12-17T21:25:57.963Z,99.10
2018-12-17T21:28:27.065Z,99.10
2018-12-17T21:30:56.254Z,98.80
2018-12-17T21:33:25.392Z,98.70
2018-12-17T21:35:54.470Z,98.90
2018-12-17T21:38:23.559Z,98.90
2018-12-17T21:40:52.725Z,99.10
2018-12-17T21:43:21.821Z,99.20
2018-12-17T21:45:50.831Z,99.30
2018-12-17T21:48:20.450Z,99.30
2018-12-17T21:50:55.766Z,99.40
2018-12-17T21:53:24.901Z,99.40
2018-12-17T21:55:54.060Z,99.20
2018-12-17T21:58:23.176Z,99.40
2018-12-17T22:00:52.340Z,99.30
2018-12-17T22:03:21.392Z,99.20
2018-12-17T22:05:50.444Z,99.20
2018-12-17T22:08:19.791Z,99.40
2018-12-17T22:10:48.890Z,99.40
2018-12-17T22:13:17.957Z,99.30
2018-12-17T22:15:47.354Z,99.10
2018-12-17T22:18:16.427Z,99.10
2018-12-17T22:20:45.528Z,99.10
2018-12-17T22:23:14.946Z,99.20
2018-12-17T22:25:44.041Z,99.40
2018-12-17T22:28:13.101Z,99.30
2018-12-17T22:30:42.227Z,99.50
2018-12-17T22:33:11.344Z,99.60
2018-12-17T22:35:40.469Z,99.40
2018-12-17T22:38:09.597Z,99.40
2018-12-17T22:40:38.730Z,99.90
2018-12-17T22:43:07.830Z,99.50
2018-12-17T22:45:36.986Z,99.50
2018-12-17T22:48:06.078Z,99.40
2018-12-17T22:50:35.153Z,99.40
2018-12-17T22:53:04.385Z,99.40
2018-12-17T22:55:33.503Z,99.40
2018-12-17T22:58:02.547Z,99.60
2018-12-17T23:00:31.762Z,99.50
2018-12-17T23:03:01.144Z,99.90
2018-12-17T23:05:30.280Z,99.50
2018-12-17T23:07:59.399Z,99.40
2018-12-17T23:10:45.121Z,99.60
2018-12-17T23:13:25.115Z,99.50
2018-12-17T23:16:05.067Z,99.50
2018-12-17T23:18:33.096Z,99.80
2018-12-17T23:21:02.210Z,99.90
2018-12-17T23:23:31.592Z,99.80
2018-12-17T23:26:00.720Z,99.60
2018-12-17T23:28:29.849Z,99.50
2018-12-17T23:30:58.985Z,99.50
2018-12-17T23:33:32.811Z,99.60
2018-12-17T23:35:59.419Z,99.60
2018-12-17T23:38:28.570Z,99.30
2018-12-17T23:40:57.683Z,99.30
2018-12-17T23:43:26.789Z,99.50
2018-12-17T23:45:55.938Z,99.50
2018-12-17T23:48:24.980Z,99.40
2018-12-17T23:50:54.318Z,99.40
2018-12-17T23:53:23.447Z,99.30
2018-12-17T23:55:52.499Z,99.30
2018-12-17T23:58:21.524Z,99.40
